sensor_id;sensor_type;location;lat;lon;timestamp;P1;durP1;ratioP1;P2;durP2;ratioP2
51636;SDS011;37713;53.254;6.460;2023-05-02T00:00:42;9.27;;;3.97;;
51636;SDS011;37713;53.254;6.460;2023-05-02T00:03:09;7.82;;;3.38;;
51636;SDS011;37713;53.254;6.460;2023-05-02T00:05:36;10.27;;;3.40;;
51636;SDS011;37713;53.254;6.460;2023-05-02T00:08:02;7.22;;;2.80;;
51636;SDS011;37713;53.254;6.460;2023-05-02T00:10:28;9.15;;;3.10;;
51636;SDS011;37713;53.254;6.460;2023-05-02T00:12:54;7.65;;;2.60;;
51636;SDS011;37713;53.254;6.460;2023-05-02T00:15:20;10.52;;;3.35;;
51636;SDS011;37713;53.254;6.460;2023-05-02T00:17:45;10.23;;;3.10;;
51636;SDS011;37713;53.254;6.460;2023-05-02T00:20:11;8.93;;;2.83;;
51636;SDS011;37713;53.254;6.460;2023-05-02T00:22:37;10.32;;;3.10;;
51636;SDS011;37713;53.254;6.460;2023-05-02T00:25:04;12.05;;;3.42;;
51636;SDS011;37713;53.254;6.460;2023-05-02T00:27:30;11.45;;;3.80;;
51636;SDS011;37713;53.254;6.460;2023-05-02T00:29:57;10.82;;;3.30;;
51636;SDS011;37713;53.254;6.460;2023-05-02T00:32:24;9.93;;;3.42;;
51636;SDS011;37713;53.254;6.460;2023-05-02T00:34:51;9.75;;;3.17;;
51636;SDS011;37713;53.254;6.460;2023-05-02T00:37:17;9.82;;;3.35;;
51636;SDS011;37713;53.254;6.460;2023-05-02T00:39:43;11.25;;;3.08;;
51636;SDS011;37713;53.254;6.460;2023-05-02T00:42:09;12.82;;;3.30;;
51636;SDS011;37713;53.254;6.460;2023-05-02T00:44:35;11.77;;;4.00;;
51636;SDS011;37713;53.254;6.460;2023-05-02T00:47:01;9.40;;;3.70;;
51636;SDS011;37713;53.254;6.460;2023-05-02T00:49:27;10.50;;;3.35;;
51636;SDS011;37713;53.254;6.460;2023-05-02T00:51:53;9.85;;;3.58;;
51636;SDS011;37713;53.254;6.460;2023-05-02T00:54:19;10.73;;;3.55;;
51636;SDS011;37713;53.254;6.460;2023-05-02T00:56:45;9.90;;;3.60;;
51636;SDS011;37713;53.254;6.460;2023-05-02T00:59:11;9.98;;;3.47;;
51636;SDS011;37713;53.254;6.460;2023-05-02T01:01:44;12.75;;;3.47;;
51636;SDS011;37713;53.254;6.460;2023-05-02T01:04:35;20.63;;;4.30;;
51636;SDS011;37713;53.254;6.460;2023-05-02T01:11:11;25.08;;;4.30;;
51636;SDS011;37713;53.254;6.460;2023-05-02T01:13:25;14.15;;;4.75;;
51636;SDS011;37713;53.254;6.460;2023-05-02T01:15:56;16.83;;;3.85;;
51636;SDS011;37713;53.254;6.460;2023-05-02T01:18:26;19.20;;;4.10;;
51636;SDS011;37713;53.254;6.460;2023-05-02T01:20:57;12.93;;;3.55;;
51636;SDS011;37713;53.254;6.460;2023-05-02T01:23:29;17.00;;;3.80;;
51636;SDS011;37713;53.254;6.460;2023-05-02T01:28:54;18.27;;;4.50;;
51636;SDS011;37713;53.254;6.460;2023-05-02T01:31:25;16.33;;;3.83;;
51636;SDS011;37713;53.254;6.460;2023-05-02T01:34:11;25.30;;;5.13;;
51636;SDS011;37713;53.254;6.460;2023-05-02T01:36:40;23.50;;;5.30;;
51636;SDS011;37713;53.254;6.460;2023-05-02T01:39:10;21.60;;;4.43;;
51636;SDS011;37713;53.254;6.460;2023-05-02T01:41:39;15.98;;;3.65;;
51636;SDS011;37713;53.254;6.460;2023-05-02T01:44:07;19.00;;;3.80;;
51636;SDS011;37713;53.254;6.460;2023-05-02T01:46:35;23.23;;;4.55;;
51636;SDS011;37713;53.254;6.460;2023-05-02T01:49:05;22.50;;;4.18;;
51636;SDS011;37713;53.254;6.460;2023-05-02T01:51:34;22.10;;;4.15;;
51636;SDS011;37713;53.254;6.460;2023-05-02T01:54:03;20.55;;;4.50;;
51636;SDS011;37713;53.254;6.460;2023-05-02T01:56:32;30.70;;;4.05;;
51636;SDS011;37713;53.254;6.460;2023-05-02T02:01:30;22.90;;;4.20;;
51636;SDS011;37713;53.254;6.460;2023-05-02T02:03:57;19.35;;;3.90;;
51636;SDS011;37713;53.254;6.460;2023-05-02T02:06:25;17.48;;;4.22;;
51636;SDS011;37713;53.254;6.460;2023-05-02T02:08:51;21.60;;;5.78;;
51636;SDS011;37713;53.254;6.460;2023-05-02T02:11:20;26.50;;;5.13;;
51636;SDS011;37713;53.254;6.460;2023-05-02T02:13:58;19.52;;;4.85;;
51636;SDS011;37713;53.254;6.460;2023-05-02T02:16:29;27.00;;;4.82;;
51636;SDS011;37713;53.254;6.460;2023-05-02T02:18:57;16.73;;;4.72;;
51636;SDS011;37713;53.254;6.460;2023-05-02T02:21:28;28.23;;;5.20;;
51636;SDS011;37713;53.254;6.460;2023-05-02T02:23:56;22.35;;;5.57;;
51636;SDS011;37713;53.254;6.460;2023-05-02T02:26:25;22.10;;;4.82;;
51636;SDS011;37713;53.254;6.460;2023-05-02T02:28:51;20.58;;;4.30;;
51636;SDS011;37713;53.254;6.460;2023-05-02T02:31:17;23.25;;;5.20;;
51636;SDS011;37713;53.254;6.460;2023-05-02T02:33:43;17.90;;;4.10;;
51636;SDS011;37713;53.254;6.460;2023-05-02T02:36:30;21.77;;;4.55;;
51636;SDS011;37713;53.254;6.460;2023-05-02T02:39:20;14.25;;;3.72;;
51636;SDS011;37713;53.254;6.460;2023-05-02T02:45:04;22.52;;;3.92;;
51636;SDS011;37713;53.254;6.460;2023-05-02T02:47:43;16.98;;;4.03;;
51636;SDS011;37713;53.254;6.460;2023-05-02T02:50:26;19.45;;;3.80;;
51636;SDS011;37713;53.254;6.460;2023-05-02T02:53:07;21.83;;;3.80;;
51636;SDS011;37713;53.254;6.460;2023-05-02T02:55:43;16.50;;;3.80;;
51636;SDS011;37713;53.254;6.460;2023-05-02T03:01:15;16.02;;;2.88;;
51636;SDS011;37713;53.254;6.460;2023-05-02T03:03:44;19.05;;;3.20;;
51636;SDS011;37713;53.254;6.460;2023-05-02T03:06:11;15.13;;;2.92;;
51636;SDS011;37713;53.254;6.460;2023-05-02T03:08:41;14.23;;;3.50;;
51636;SDS011;37713;53.254;6.460;2023-05-02T03:11:08;17.17;;;3.47;;
51636;SDS011;37713;53.254;6.460;2023-05-02T03:13:37;22.92;;;3.42;;
51636;SDS011;37713;53.254;6.460;2023-05-02T03:16:11;14.82;;;3.33;;
51636;SDS011;37713;53.254;6.460;2023-05-02T03:19:05;12.65;;;2.58;;
51636;SDS011;37713;53.254;6.460;2023-05-02T03:21:32;13.32;;;2.88;;
51636;SDS011;37713;53.254;6.460;2023-05-02T03:23:59;15.27;;;3.53;;
51636;SDS011;37713;53.254;6.460;2023-05-02T03:26:26;17.58;;;2.90;;
51636;SDS011;37713;53.254;6.460;2023-05-02T03:28:53;18.88;;;2.80;;
51636;SDS011;37713;53.254;6.460;2023-05-02T03:31:20;15.88;;;2.50;;
51636;SDS011;37713;53.254;6.460;2023-05-02T03:33:46;9.65;;;2.50;;
51636;SDS011;37713;53.254;6.460;2023-05-02T03:36:12;14.10;;;3.00;;
51636;SDS011;37713;53.254;6.460;2023-05-02T03:38:38;21.05;;;10.57;;
51636;SDS011;37713;53.254;6.460;2023-05-02T03:41:04;12.30;;;2.60;;
51636;SDS011;37713;53.254;6.460;2023-05-02T03:43:30;10.05;;;2.38;;
51636;SDS011;37713;53.254;6.460;2023-05-02T03:45:56;8.48;;;1.98;;
51636;SDS011;37713;53.254;6.460;2023-05-02T03:48:28;12.40;;;2.20;;
51636;SDS011;37713;53.254;6.460;2023-05-02T03:50:53;11.45;;;2.78;;
51636;SDS011;37713;53.254;6.460;2023-05-02T03:53:19;12.02;;;2.00;;
51636;SDS011;37713;53.254;6.460;2023-05-02T03:55:45;8.55;;;2.28;;
51636;SDS011;37713;53.254;6.460;2023-05-02T03:58:11;10.23;;;2.30;;
51636;SDS011;37713;53.254;6.460;2023-05-02T04:00:37;9.73;;;2.10;;
51636;SDS011;37713;53.254;6.460;2023-05-02T04:03:03;8.77;;;2.00;;
51636;SDS011;37713;53.254;6.460;2023-05-02T04:05:28;11.70;;;2.40;;
51636;SDS011;37713;53.254;6.460;2023-05-02T04:07:55;9.07;;;2.08;;
51636;SDS011;37713;53.254;6.460;2023-05-02T04:10:21;6.95;;;2.00;;
51636;SDS011;37713;53.254;6.460;2023-05-02T04:12:47;9.43;;;2.50;;
51636;SDS011;37713;53.254;6.460;2023-05-02T04:15:13;10.23;;;2.17;;
51636;SDS011;37713;53.254;6.460;2023-05-02T04:17:39;10.48;;;2.30;;
51636;SDS011;37713;53.254;6.460;2023-05-02T04:20:05;11.27;;;2.40;;
51636;SDS011;37713;53.254;6.460;2023-05-02T04:22:31;9.20;;;2.38;;
51636;SDS011;37713;53.254;6.460;2023-05-02T04:24:57;10.77;;;2.50;;
51636;SDS011;37713;53.254;6.460;2023-05-02T04:27:23;9.85;;;2.72;;
51636;SDS011;37713;53.254;6.460;2023-05-02T04:29:51;11.77;;;2.70;;
51636;SDS011;37713;53.254;6.460;2023-05-02T04:32:20;13.27;;;2.60;;
51636;SDS011;37713;53.254;6.460;2023-05-02T04:34:46;9.35;;;2.22;;
51636;SDS011;37713;53.254;6.460;2023-05-02T04:37:12;11.60;;;2.70;;
51636;SDS011;37713;53.254;6.460;2023-05-02T04:39:37;7.70;;;2.30;;
51636;SDS011;37713;53.254;6.460;2023-05-02T04:42:03;8.93;;;2.65;;
51636;SDS011;37713;53.254;6.460;2023-05-02T04:44:29;9.25;;;3.00;;
51636;SDS011;37713;53.254;6.460;2023-05-02T04:46:55;10.60;;;2.80;;
51636;SDS011;37713;53.254;6.460;2023-05-02T04:49:21;14.10;;;2.33;;
51636;SDS011;37713;53.254;6.460;2023-05-02T04:51:47;15.95;;;2.60;;
51636;SDS011;37713;53.254;6.460;2023-05-02T04:54:12;17.77;;;3.25;;
51636;SDS011;37713;53.254;6.460;2023-05-02T04:56:39;14.18;;;3.20;;
51636;SDS011;37713;53.254;6.460;2023-05-02T04:59:05;15.43;;;2.92;;
51636;SDS011;37713;53.254;6.460;2023-05-02T05:01:31;11.85;;;2.60;;
51636;SDS011;37713;53.254;6.460;2023-05-02T05:03:56;12.88;;;2.70;;
51636;SDS011;37713;53.254;6.460;2023-05-02T05:06:22;13.90;;;2.80;;
51636;SDS011;37713;53.254;6.460;2023-05-02T05:08:48;11.38;;;2.92;;
51636;SDS011;37713;53.254;6.460;2023-05-02T05:11:14;14.63;;;2.83;;
51636;SDS011;37713;53.254;6.460;2023-05-02T05:13:40;17.15;;;2.92;;
51636;SDS011;37713;53.254;6.460;2023-05-02T05:16:07;13.85;;;2.95;;
51636;SDS011;37713;53.254;6.460;2023-05-02T05:18:33;13.50;;;3.33;;
51636;SDS011;37713;53.254;6.460;2023-05-02T05:21:08;14.85;;;3.00;;
51636;SDS011;37713;53.254;6.460;2023-05-02T05:23:35;12.55;;;3.00;;
51636;SDS011;37713;53.254;6.460;2023-05-02T05:26:11;15.45;;;3.10;;
51636;SDS011;37713;53.254;6.460;2023-05-02T05:28:39;19.10;;;3.53;;
51636;SDS011;37713;53.254;6.460;2023-05-02T05:31:06;17.65;;;3.25;;
51636;SDS011;37713;53.254;6.460;2023-05-02T05:33:32;11.57;;;2.90;;
51636;SDS011;37713;53.254;6.460;2023-05-02T05:36:02;13.65;;;3.40;;
51636;SDS011;37713;53.254;6.460;2023-05-02T05:38:30;13.70;;;3.08;;
51636;SDS011;37713;53.254;6.460;2023-05-02T05:40:56;11.93;;;2.97;;
51636;SDS011;37713;53.254;6.460;2023-05-02T05:43:22;12.38;;;3.72;;
51636;SDS011;37713;53.254;6.460;2023-05-02T05:45:50;11.10;;;2.97;;
51636;SDS011;37713;53.254;6.460;2023-05-02T05:48:16;13.55;;;3.33;;
51636;SDS011;37713;53.254;6.460;2023-05-02T05:50:42;14.25;;;2.90;;
51636;SDS011;37713;53.254;6.460;2023-05-02T05:53:08;9.15;;;2.75;;
51636;SDS011;37713;53.254;6.460;2023-05-02T05:55:34;10.95;;;2.60;;
51636;SDS011;37713;53.254;6.460;2023-05-02T05:58:00;15.65;;;3.28;;
51636;SDS011;37713;53.254;6.460;2023-05-02T06:00:26;15.05;;;2.88;;
51636;SDS011;37713;53.254;6.460;2023-05-02T06:02:52;15.77;;;3.00;;
51636;SDS011;37713;53.254;6.460;2023-05-02T06:05:17;13.00;;;3.15;;
51636;SDS011;37713;53.254;6.460;2023-05-02T06:07:43;12.75;;;2.97;;
51636;SDS011;37713;53.254;6.460;2023-05-02T06:10:09;15.98;;;2.95;;
51636;SDS011;37713;53.254;6.460;2023-05-02T06:12:35;14.20;;;3.00;;
51636;SDS011;37713;53.254;6.460;2023-05-02T06:15:01;11.77;;;3.05;;
51636;SDS011;37713;53.254;6.460;2023-05-02T06:17:27;11.55;;;2.88;;
51636;SDS011;37713;53.254;6.460;2023-05-02T06:19:52;13.02;;;3.15;;
51636;SDS011;37713;53.254;6.460;2023-05-02T06:22:18;13.77;;;3.03;;
51636;SDS011;37713;53.254;6.460;2023-05-02T06:24:44;13.57;;;3.22;;
51636;SDS011;37713;53.254;6.460;2023-05-02T06:27:09;16.35;;;3.35;;
51636;SDS011;37713;53.254;6.460;2023-05-02T06:29:35;11.50;;;3.08;;
51636;SDS011;37713;53.254;6.460;2023-05-02T06:32:01;12.15;;;2.47;;
51636;SDS011;37713;53.254;6.460;2023-05-02T06:34:30;15.40;;;3.33;;
51636;SDS011;37713;53.254;6.460;2023-05-02T06:36:57;10.75;;;2.83;;
51636;SDS011;37713;53.254;6.460;2023-05-02T06:39:23;13.20;;;3.15;;
51636;SDS011;37713;53.254;6.460;2023-05-02T06:41:49;12.93;;;3.22;;
51636;SDS011;37713;53.254;6.460;2023-05-02T06:44:15;8.70;;;2.53;;
51636;SDS011;37713;53.254;6.460;2023-05-02T06:46:41;9.32;;;2.58;;
51636;SDS011;37713;53.254;6.460;2023-05-02T06:49:07;8.50;;;2.53;;
51636;SDS011;37713;53.254;6.460;2023-05-02T06:51:33;9.00;;;2.45;;
51636;SDS011;37713;53.254;6.460;2023-05-02T06:53:59;15.25;;;2.65;;
51636;SDS011;37713;53.254;6.460;2023-05-02T06:56:24;8.18;;;2.75;;
51636;SDS011;37713;53.254;6.460;2023-05-02T06:58:51;10.55;;;3.05;;
51636;SDS011;37713;53.254;6.460;2023-05-02T07:01:16;7.68;;;2.53;;
51636;SDS011;37713;53.254;6.460;2023-05-02T07:03:42;15.43;;;3.65;;
51636;SDS011;37713;53.254;6.460;2023-05-02T07:06:08;10.30;;;2.80;;
51636;SDS011;37713;53.254;6.460;2023-05-02T07:08:34;11.75;;;3.00;;
51636;SDS011;37713;53.254;6.460;2023-05-02T07:11:00;15.90;;;3.25;;
51636;SDS011;37713;53.254;6.460;2023-05-02T07:13:26;10.18;;;3.03;;
51636;SDS011;37713;53.254;6.460;2023-05-02T07:15:52;16.35;;;3.33;;
51636;SDS011;37713;53.254;6.460;2023-05-02T07:18:18;13.77;;;3.40;;
51636;SDS011;37713;53.254;6.460;2023-05-02T07:20:45;10.52;;;3.08;;
51636;SDS011;37713;53.254;6.460;2023-05-02T07:23:11;10.48;;;2.88;;
51636;SDS011;37713;53.254;6.460;2023-05-02T07:25:37;11.13;;;2.80;;
51636;SDS011;37713;53.254;6.460;2023-05-02T07:28:04;9.57;;;2.83;;
51636;SDS011;37713;53.254;6.460;2023-05-02T07:30:30;10.02;;;2.42;;
51636;SDS011;37713;53.254;6.460;2023-05-02T07:32:56;12.02;;;3.15;;
51636;SDS011;37713;53.254;6.460;2023-05-02T07:35:22;10.77;;;2.53;;
51636;SDS011;37713;53.254;6.460;2023-05-02T07:37:48;11.80;;;2.70;;
51636;SDS011;37713;53.254;6.460;2023-05-02T07:40:14;11.38;;;2.67;;
51636;SDS011;37713;53.254;6.460;2023-05-02T07:42:39;13.18;;;2.30;;
51636;SDS011;37713;53.254;6.460;2023-05-02T07:45:06;6.18;;;1.80;;
51636;SDS011;37713;53.254;6.460;2023-05-02T07:47:32;8.15;;;2.20;;
51636;SDS011;37713;53.254;6.460;2023-05-02T07:49:58;8.27;;;2.28;;
51636;SDS011;37713;53.254;6.460;2023-05-02T07:52:24;11.13;;;2.47;;
51636;SDS011;37713;53.254;6.460;2023-05-02T07:54:50;6.90;;;2.20;;
51636;SDS011;37713;53.254;6.460;2023-05-02T07:57:16;7.97;;;2.13;;
51636;SDS011;37713;53.254;6.460;2023-05-02T07:59:42;9.25;;;2.22;;
51636;SDS011;37713;53.254;6.460;2023-05-02T08:02:08;7.53;;;2.03;;
51636;SDS011;37713;53.254;6.460;2023-05-02T08:04:35;10.90;;;1.92;;
51636;SDS011;37713;53.254;6.460;2023-05-02T08:07:01;6.13;;;1.67;;
51636;SDS011;37713;53.254;6.460;2023-05-02T08:09:28;6.85;;;1.90;;
51636;SDS011;37713;53.254;6.460;2023-05-02T08:11:53;5.50;;;1.40;;
51636;SDS011;37713;53.254;6.460;2023-05-02T08:14:19;6.72;;;1.48;;
51636;SDS011;37713;53.254;6.460;2023-05-02T08:16:45;6.15;;;1.20;;
51636;SDS011;37713;53.254;6.460;2023-05-02T08:19:11;6.35;;;1.40;;
51636;SDS011;37713;53.254;6.460;2023-05-02T08:21:37;7.15;;;1.73;;
51636;SDS011;37713;53.254;6.460;2023-05-02T08:24:02;7.00;;;1.70;;
51636;SDS011;37713;53.254;6.460;2023-05-02T08:26:28;5.28;;;1.58;;
51636;SDS011;37713;53.254;6.460;2023-05-02T08:28:54;3.90;;;1.20;;
51636;SDS011;37713;53.254;6.460;2023-05-02T08:31:20;7.35;;;1.50;;
51636;SDS011;37713;53.254;6.460;2023-05-02T08:33:46;5.82;;;1.77;;
51636;SDS011;37713;53.254;6.460;2023-05-02T08:36:12;5.72;;;1.35;;
51636;SDS011;37713;53.254;6.460;2023-05-02T08:38:43;7.80;;;1.70;;
51636;SDS011;37713;53.254;6.460;2023-05-02T08:41:13;5.70;;;1.48;;
51636;SDS011;37713;53.254;6.460;2023-05-02T08:43:42;5.60;;;1.30;;
51636;SDS011;37713;53.254;6.460;2023-05-02T08:46:12;7.60;;;1.50;;
51636;SDS011;37713;53.254;6.460;2023-05-02T08:48:40;5.57;;;1.70;;
51636;SDS011;37713;53.254;6.460;2023-05-02T08:51:08;5.18;;;1.48;;
51636;SDS011;37713;53.254;6.460;2023-05-02T08:53:36;3.17;;;1.20;;
51636;SDS011;37713;53.254;6.460;2023-05-02T08:56:02;5.88;;;1.20;;
51636;SDS011;37713;53.254;6.460;2023-05-02T08:58:30;6.32;;;1.30;;
51636;SDS011;37713;53.254;6.460;2023-05-02T09:00:57;5.60;;;1.25;;
51636;SDS011;37713;53.254;6.460;2023-05-02T09:03:33;4.22;;;1.42;;
51636;SDS011;37713;53.254;6.460;2023-05-02T09:06:10;4.15;;;1.45;;
51636;SDS011;37713;53.254;6.460;2023-05-02T09:08:38;4.30;;;1.30;;
51636;SDS011;37713;53.254;6.460;2023-05-02T09:11:05;4.90;;;1.15;;
51636;SDS011;37713;53.254;6.460;2023-05-02T09:13:36;6.25;;;1.10;;
51636;SDS011;37713;53.254;6.460;2023-05-02T09:16:04;4.85;;;1.17;;
51636;SDS011;37713;53.254;6.460;2023-05-02T09:18:32;5.35;;;1.30;;
51636;SDS011;37713;53.254;6.460;2023-05-02T09:21:06;5.13;;;1.17;;
51636;SDS011;37713;53.254;6.460;2023-05-02T09:23:34;6.43;;;1.80;;
51636;SDS011;37713;53.254;6.460;2023-05-02T09:26:09;5.20;;;1.10;;
51636;SDS011;37713;53.254;6.460;2023-05-02T09:28:42;5.70;;;1.08;;
51636;SDS011;37713;53.254;6.460;2023-05-02T09:31:10;8.52;;;1.45;;
51636;SDS011;37713;53.254;6.460;2023-05-02T09:33:38;5.82;;;1.17;;
51636;SDS011;37713;53.254;6.460;2023-05-02T09:36:05;7.10;;;1.15;;
51636;SDS011;37713;53.254;6.460;2023-05-02T09:38:32;5.43;;;0.95;;
51636;SDS011;37713;53.254;6.460;2023-05-02T09:40:58;5.72;;;1.10;;
51636;SDS011;37713;53.254;6.460;2023-05-02T09:43:28;5.57;;;0.90;;
51636;SDS011;37713;53.254;6.460;2023-05-02T09:45:59;4.95;;;1.45;;
51636;SDS011;37713;53.254;6.460;2023-05-02T09:48:27;5.70;;;1.08;;
51636;SDS011;37713;53.254;6.460;2023-05-02T09:50:53;4.00;;;1.00;;
51636;SDS011;37713;53.254;6.460;2023-05-02T09:53:20;6.63;;;1.33;;
51636;SDS011;37713;53.254;6.460;2023-05-02T09:55:48;6.45;;;1.52;;
51636;SDS011;37713;53.254;6.460;2023-05-02T09:58:24;4.78;;;1.10;;
51636;SDS011;37713;53.254;6.460;2023-05-02T10:00:50;5.15;;;1.30;;
51636;SDS011;37713;53.254;6.460;2023-05-02T10:03:16;5.40;;;1.20;;
51636;SDS011;37713;53.254;6.460;2023-05-02T10:05:44;4.18;;;1.13;;
51636;SDS011;37713;53.254;6.460;2023-05-02T10:08:11;6.35;;;1.20;;
51636;SDS011;37713;53.254;6.460;2023-05-02T10:10:38;7.05;;;1.30;;
51636;SDS011;37713;53.254;6.460;2023-05-02T10:13:06;5.47;;;1.23;;
51636;SDS011;37713;53.254;6.460;2023-05-02T10:15:33;5.55;;;1.35;;
51636;SDS011;37713;53.254;6.460;2023-05-02T10:18:13;5.40;;;1.23;;
51636;SDS011;37713;53.254;6.460;2023-05-02T10:20:42;5.45;;;1.30;;
51636;SDS011;37713;53.254;6.460;2023-05-02T10:23:14;6.32;;;1.20;;
51636;SDS011;37713;53.254;6.460;2023-05-02T10:25:41;5.45;;;1.58;;
51636;SDS011;37713;53.254;6.460;2023-05-02T10:28:08;5.35;;;1.67;;
51636;SDS011;37713;53.254;6.460;2023-05-02T10:30:35;7.13;;;1.50;;
51636;SDS011;37713;53.254;6.460;2023-05-02T10:33:01;7.45;;;1.40;;
51636;SDS011;37713;53.254;6.460;2023-05-02T10:35:28;5.60;;;1.70;;
51636;SDS011;37713;53.254;6.460;2023-05-02T10:37:56;8.15;;;1.60;;
51636;SDS011;37713;53.254;6.460;2023-05-02T10:40:24;7.18;;;1.70;;
51636;SDS011;37713;53.254;6.460;2023-05-02T10:42:50;4.90;;;1.38;;
51636;SDS011;37713;53.254;6.460;2023-05-02T10:45:30;5.65;;;1.42;;
51636;SDS011;37713;53.254;6.460;2023-05-02T10:48:25;4.57;;;1.30;;
51636;SDS011;37713;53.254;6.460;2023-05-02T10:50:51;4.35;;;1.10;;
51636;SDS011;37713;53.254;6.460;2023-05-02T10:53:33;4.75;;;1.02;;
51636;SDS011;37713;53.254;6.460;2023-05-02T10:58:32;4.72;;;1.17;;
51636;SDS011;37713;53.254;6.460;2023-05-02T11:03:55;5.60;;;1.30;;
51636;SDS011;37713;53.254;6.460;2023-05-02T11:08:51;4.10;;;1.23;;
51636;SDS011;37713;53.254;6.460;2023-05-02T11:14:06;5.45;;;1.10;;
51636;SDS011;37713;53.254;6.460;2023-05-02T11:24:48;5.18;;;1.10;;
51636;SDS011;37713;53.254;6.460;2023-05-02T11:30:05;3.92;;;1.23;;
51636;SDS011;37713;53.254;6.460;2023-05-02T11:35:25;2.25;;;0.68;;
51636;SDS011;37713;53.254;6.460;2023-05-02T11:37:52;3.88;;;0.80;;
51636;SDS011;37713;53.254;6.460;2023-05-02T11:40:18;6.30;;;0.88;;
51636;SDS011;37713;53.254;6.460;2023-05-02T11:42:44;3.22;;;0.70;;
51636;SDS011;37713;53.254;6.460;2023-05-02T11:45:11;4.85;;;0.85;;
51636;SDS011;37713;53.254;6.460;2023-05-02T11:47:37;2.90;;;0.80;;
51636;SDS011;37713;53.254;6.460;2023-05-02T11:50:06;2.05;;;0.60;;
51636;SDS011;37713;53.254;6.460;2023-05-02T11:52:40;6.68;;;2.90;;
51636;SDS011;37713;53.254;6.460;2023-05-02T11:55:09;24.27;;;16.10;;
51636;SDS011;37713;53.254;6.460;2023-05-02T11:57:38;3.65;;;1.33;;
51636;SDS011;37713;53.254;6.460;2023-05-02T12:00:07;3.15;;;0.82;;
51636;SDS011;37713;53.254;6.460;2023-05-02T12:02:42;2.83;;;0.57;;
51636;SDS011;37713;53.254;6.460;2023-05-02T12:05:13;2.13;;;0.45;;
51636;SDS011;37713;53.254;6.460;2023-05-02T12:10:07;4.65;;;0.70;;
51636;SDS011;37713;53.254;6.460;2023-05-02T12:12:34;1.88;;;0.50;;
51636;SDS011;37713;53.254;6.460;2023-05-02T12:15:07;1.73;;;0.60;;
51636;SDS011;37713;53.254;6.460;2023-05-02T12:17:38;2.55;;;0.65;;
51636;SDS011;37713;53.254;6.460;2023-05-02T12:20:06;2.35;;;0.65;;
51636;SDS011;37713;53.254;6.460;2023-05-02T12:22:33;2.70;;;0.60;;
51636;SDS011;37713;53.254;6.460;2023-05-02T12:24:59;3.78;;;0.57;;
51636;SDS011;37713;53.254;6.460;2023-05-02T12:27:27;3.05;;;0.60;;
51636;SDS011;37713;53.254;6.460;2023-05-02T12:29:53;4.10;;;0.50;;
51636;SDS011;37713;53.254;6.460;2023-05-02T12:32:28;3.10;;;0.70;;
51636;SDS011;37713;53.254;6.460;2023-05-02T12:34:55;2.47;;;0.70;;
51636;SDS011;37713;53.254;6.460;2023-05-02T12:37:25;2.80;;;0.60;;
51636;SDS011;37713;53.254;6.460;2023-05-02T12:39:52;3.30;;;0.80;;
51636;SDS011;37713;53.254;6.460;2023-05-02T12:42:20;2.10;;;0.75;;
51636;SDS011;37713;53.254;6.460;2023-05-02T12:44:48;2.47;;;0.70;;
51636;SDS011;37713;53.254;6.460;2023-05-02T12:47:18;4.82;;;1.13;;
51636;SDS011;37713;53.254;6.460;2023-05-02T12:55:14;7.03;;;1.10;;
51636;SDS011;37713;53.254;6.460;2023-05-02T12:57:43;8.27;;;1.10;;
51636;SDS011;37713;53.254;6.460;2023-05-02T13:00:10;6.22;;;1.10;;
51636;SDS011;37713;53.254;6.460;2023-05-02T13:02:36;7.38;;;1.83;;
51636;SDS011;37713;53.254;6.460;2023-05-02T13:05:12;7.03;;;1.25;;
51636;SDS011;37713;53.254;6.460;2023-05-02T13:07:41;5.13;;;0.90;;
51636;SDS011;37713;53.254;6.460;2023-05-02T13:10:07;3.83;;;0.93;;
51636;SDS011;37713;53.254;6.460;2023-05-02T13:12:35;4.10;;;1.00;;
51636;SDS011;37713;53.254;6.460;2023-05-02T13:15:05;4.78;;;0.85;;
51636;SDS011;37713;53.254;6.460;2023-05-02T13:17:35;9.68;;;1.25;;
51636;SDS011;37713;53.254;6.460;2023-05-02T13:20:01;7.13;;;1.10;;
51636;SDS011;37713;53.254;6.460;2023-05-02T13:22:27;7.25;;;1.17;;
51636;SDS011;37713;53.254;6.460;2023-05-02T13:24:53;9.23;;;1.30;;
51636;SDS011;37713;53.254;6.460;2023-05-02T13:27:23;6.38;;;0.90;;
51636;SDS011;37713;53.254;6.460;2023-05-02T13:29:50;2.95;;;1.02;;
51636;SDS011;37713;53.254;6.460;2023-05-02T13:32:16;4.38;;;0.80;;
51636;SDS011;37713;53.254;6.460;2023-05-02T13:34:43;4.63;;;0.80;;
51636;SDS011;37713;53.254;6.460;2023-05-02T13:37:09;2.35;;;0.50;;
51636;SDS011;37713;53.254;6.460;2023-05-02T13:39:35;5.03;;;1.02;;
51636;SDS011;37713;53.254;6.460;2023-05-02T13:42:01;4.32;;;0.90;;
51636;SDS011;37713;53.254;6.460;2023-05-02T13:44:28;3.85;;;0.70;;
51636;SDS011;37713;53.254;6.460;2023-05-02T13:46:54;4.00;;;0.77;;
51636;SDS011;37713;53.254;6.460;2023-05-02T13:49:20;6.35;;;1.35;;
51636;SDS011;37713;53.254;6.460;2023-05-02T13:51:46;3.47;;;0.90;;
51636;SDS011;37713;53.254;6.460;2023-05-02T13:54:12;2.80;;;0.75;;
51636;SDS011;37713;53.254;6.460;2023-05-02T13:56:39;2.40;;;0.52;;
51636;SDS011;37713;53.254;6.460;2023-05-02T13:59:05;5.28;;;0.90;;
51636;SDS011;37713;53.254;6.460;2023-05-02T14:01:31;6.97;;;0.93;;
51636;SDS011;37713;53.254;6.460;2023-05-02T14:03:57;3.65;;;0.90;;
51636;SDS011;37713;53.254;6.460;2023-05-02T14:06:23;3.15;;;0.75;;
51636;SDS011;37713;53.254;6.460;2023-05-02T14:08:49;3.67;;;0.82;;
51636;SDS011;37713;53.254;6.460;2023-05-02T14:11:15;5.63;;;0.98;;
51636;SDS011;37713;53.254;6.460;2023-05-02T14:13:41;8.23;;;2.60;;
51636;SDS011;37713;53.254;6.460;2023-05-02T14:16:08;6.38;;;1.00;;
51636;SDS011;37713;53.254;6.460;2023-05-02T14:18:34;5.10;;;1.02;;
51636;SDS011;37713;53.254;6.460;2023-05-02T14:21:00;6.20;;;1.05;;
51636;SDS011;37713;53.254;6.460;2023-05-02T14:23:27;5.88;;;1.13;;
51636;SDS011;37713;53.254;6.460;2023-05-02T14:25:53;6.63;;;1.10;;
51636;SDS011;37713;53.254;6.460;2023-05-02T14:28:20;5.85;;;1.23;;
51636;SDS011;37713;53.254;6.460;2023-05-02T14:30:49;7.57;;;1.00;;
51636;SDS011;37713;53.254;6.460;2023-05-02T14:33:15;8.27;;;1.17;;
51636;SDS011;37713;53.254;6.460;2023-05-02T14:35:41;6.30;;;1.10;;
51636;SDS011;37713;53.254;6.460;2023-05-02T14:38:07;7.72;;;1.63;;
51636;SDS011;37713;53.254;6.460;2023-05-02T14:40:33;7.03;;;1.38;;
51636;SDS011;37713;53.254;6.460;2023-05-02T14:42:58;5.00;;;1.08;;
51636;SDS011;37713;53.254;6.460;2023-05-02T14:45:25;4.78;;;1.23;;
51636;SDS011;37713;53.254;6.460;2023-05-02T14:47:51;7.32;;;2.50;;
51636;SDS011;37713;53.254;6.460;2023-05-02T14:50:17;7.75;;;1.63;;
51636;SDS011;37713;53.254;6.460;2023-05-02T14:52:42;6.07;;;1.10;;
51636;SDS011;37713;53.254;6.460;2023-05-02T14:55:11;3.92;;;0.95;;
51636;SDS011;37713;53.254;6.460;2023-05-02T14:57:37;5.90;;;1.30;;
51636;SDS011;37713;53.254;6.460;2023-05-02T15:00:04;4.57;;;0.98;;
51636;SDS011;37713;53.254;6.460;2023-05-02T15:02:34;6.40;;;0.90;;
51636;SDS011;37713;53.254;6.460;2023-05-02T15:05:01;4.22;;;0.90;;
51636;SDS011;37713;53.254;6.460;2023-05-02T15:07:27;5.30;;;1.05;;
51636;SDS011;37713;53.254;6.460;2023-05-02T15:09:53;3.42;;;0.82;;
51636;SDS011;37713;53.254;6.460;2023-05-02T15:12:19;4.85;;;1.20;;
51636;SDS011;37713;53.254;6.460;2023-05-02T15:14:45;3.53;;;0.85;;
51636;SDS011;37713;53.254;6.460;2023-05-02T15:17:11;6.88;;;1.30;;
51636;SDS011;37713;53.254;6.460;2023-05-02T15:19:37;5.22;;;1.00;;
51636;SDS011;37713;53.254;6.460;2023-05-02T15:22:02;4.25;;;0.90;;
51636;SDS011;37713;53.254;6.460;2023-05-02T15:24:28;6.15;;;1.25;;
51636;SDS011;37713;53.254;6.460;2023-05-02T15:26:54;2.67;;;0.77;;
51636;SDS011;37713;53.254;6.460;2023-05-02T15:29:20;8.18;;;1.10;;
51636;SDS011;37713;53.254;6.460;2023-05-02T15:31:46;6.25;;;0.90;;
51636;SDS011;37713;53.254;6.460;2023-05-02T15:34:12;4.63;;;0.90;;